sensor_id;sensor_type;location;lat;lon;timestamp;P1;durP1;ratioP1;P2;durP2;ratioP2
39362;SDS011;25088;43.238;23.110;2024-01-11T00:00:34;1.10;;;1.10;;
39362;SDS011;25088;43.238;23.110;2024-01-11T00:02:59;1.20;;;1.20;;
39362;SDS011;25088;43.238;23.110;2024-01-11T00:05:25;1.20;;;1.20;;
39362;SDS011;25088;43.238;23.110;2024-01-11T00:07:50;1.17;;;1.17;;
39362;SDS011;25088;43.238;23.110;2024-01-11T00:10:16;1.13;;;1.13;;
39362;SDS011;25088;43.238;23.110;2024-01-11T00:12:41;1.05;;;1.05;;
39362;SDS011;25088;43.238;23.110;2024-01-11T00:15:07;1.17;;;1.17;;
39362;SDS011;25088;43.238;23.110;2024-01-11T00:17:32;1.10;;;1.10;;
39362;SDS011;25088;43.238;23.110;2024-01-11T00:19:58;1.00;;;1.00;;
39362;SDS011;25088;43.238;23.110;2024-01-11T00:22:25;1.30;;;1.30;;
39362;SDS011;25088;43.238;23.110;2024-01-11T00:24:50;1.10;;;1.10;;
39362;SDS011;25088;43.238;23.110;2024-01-11T00:27:15;1.20;;;1.20;;
39362;SDS011;25088;43.238;23.110;2024-01-11T00:29:41;1.10;;;1.10;;
39362;SDS011;25088;43.238;23.110;2024-01-11T00:32:06;1.10;;;1.10;;
39362;SDS011;25088;43.238;23.110;2024-01-11T00:34:32;1.00;;;1.00;;
39362;SDS011;25088;43.238;23.110;2024-01-11T00:36:57;1.20;;;1.20;;
39362;SDS011;25088;43.238;23.110;2024-01-11T00:39:23;1.20;;;1.20;;
39362;SDS011;25088;43.238;23.110;2024-01-11T00:41:48;1.08;;;1.08;;
39362;SDS011;25088;43.238;23.110;2024-01-11T00:44:14;1.10;;;1.10;;
39362;SDS011;25088;43.238;23.110;2024-01-11T00:46:39;1.20;;;1.20;;
39362;SDS011;25088;43.238;23.110;2024-01-11T00:49:06;1.10;;;1.10;;
39362;SDS011;25088;43.238;23.110;2024-01-11T00:51:31;1.10;;;1.10;;
39362;SDS011;25088;43.238;23.110;2024-01-11T00:53:57;1.10;;;1.10;;
39362;SDS011;25088;43.238;23.110;2024-01-11T00:56:22;1.30;;;1.30;;
39362;SDS011;25088;43.238;23.110;2024-01-11T00:58:48;1.10;;;1.10;;
39362;SDS011;25088;43.238;23.110;2024-01-11T01:01:13;1.27;;;1.27;;
39362;SDS011;25088;43.238;23.110;2024-01-11T01:03:39;1.00;;;1.00;;
39362;SDS011;25088;43.238;23.110;2024-01-11T01:06:05;1.10;;;1.10;;
39362;SDS011;25088;43.238;23.110;2024-01-11T01:08:31;1.20;;;1.20;;
39362;SDS011;25088;43.238;23.110;2024-01-11T01:10:56;1.20;;;1.20;;
39362;SDS011;25088;43.238;23.110;2024-01-11T01:13:22;1.20;;;1.20;;
39362;SDS011;25088;43.238;23.110;2024-01-11T01:15:47;1.10;;;1.10;;
39362;SDS011;25088;43.238;23.110;2024-01-11T01:18:13;1.10;;;1.10;;
39362;SDS011;25088;43.238;23.110;2024-01-11T01:20:38;1.10;;;1.10;;
39362;SDS011;25088;43.238;23.110;2024-01-11T01:23:04;1.10;;;1.10;;
39362;SDS011;25088;43.238;23.110;2024-01-11T01:25:29;1.10;;;1.10;;
39362;SDS011;25088;43.238;23.110;2024-01-11T01:27:55;1.25;;;1.25;;
39362;SDS011;25088;43.238;23.110;2024-01-11T01:30:21;1.20;;;1.20;;
39362;SDS011;25088;43.238;23.110;2024-01-11T01:32:48;1.27;;;1.27;;
39362;SDS011;25088;43.238;23.110;2024-01-11T01:35:13;1.10;;;1.10;;
39362;SDS011;25088;43.238;23.110;2024-01-11T01:37:39;1.10;;;1.10;;
39362;SDS011;25088;43.238;23.110;2024-01-11T01:40:04;1.20;;;1.20;;
39362;SDS011;25088;43.238;23.110;2024-01-11T01:42:32;1.00;;;1.00;;
39362;SDS011;25088;43.238;23.110;2024-01-11T01:44:58;1.13;;;1.13;;
39362;SDS011;25088;43.238;23.110;2024-01-11T01:47:24;1.08;;;1.08;;
39362;SDS011;25088;43.238;23.110;2024-01-11T01:49:50;1.10;;;1.10;;
39362;SDS011;25088;43.238;23.110;2024-01-11T01:52:16;1.20;;;1.20;;
39362;SDS011;25088;43.238;23.110;2024-01-11T01:54:43;1.30;;;1.30;;
39362;SDS011;25088;43.238;23.110;2024-01-11T01:57:09;1.17;;;1.17;;
39362;SDS011;25088;43.238;23.110;2024-01-11T01:59:36;1.10;;;1.10;;
39362;SDS011;25088;43.238;23.110;2024-01-11T02:02:03;1.08;;;1.08;;
39362;SDS011;25088;43.238;23.110;2024-01-11T02:04:30;1.10;;;1.10;;
39362;SDS011;25088;43.238;23.110;2024-01-11T02:06:56;1.10;;;1.10;;
39362;SDS011;25088;43.238;23.110;2024-01-11T02:09:23;1.10;;;1.10;;
39362;SDS011;25088;43.238;23.110;2024-01-11T02:11:49;1.00;;;1.00;;
39362;SDS011;25088;43.238;23.110;2024-01-11T02:14:17;1.10;;;1.10;;
39362;SDS011;25088;43.238;23.110;2024-01-11T02:16:42;1.10;;;1.10;;
39362;SDS011;25088;43.238;23.110;2024-01-11T02:19:08;1.20;;;1.20;;
39362;SDS011;25088;43.238;23.110;2024-01-11T02:21:38;1.20;;;1.20;;
39362;SDS011;25088;43.238;23.110;2024-01-11T02:24:04;1.20;;;1.20;;
39362;SDS011;25088;43.238;23.110;2024-01-11T02:26:30;1.10;;;1.10;;
39362;SDS011;25088;43.238;23.110;2024-01-11T02:28:56;1.20;;;1.20;;
39362;SDS011;25088;43.238;23.110;2024-01-11T02:31:21;1.20;;;1.20;;
39362;SDS011;25088;43.238;23.110;2024-01-11T02:33:47;1.10;;;1.10;;
39362;SDS011;25088;43.238;23.110;2024-01-11T02:36:13;1.15;;;1.15;;
39362;SDS011;25088;43.238;23.110;2024-01-11T02:38:38;1.10;;;1.10;;
39362;SDS011;25088;43.238;23.110;2024-01-11T02:41:06;1.10;;;1.10;;
39362;SDS011;25088;43.238;23.110;2024-01-11T02:43:33;1.10;;;1.10;;
39362;SDS011;25088;43.238;23.110;2024-01-11T02:46:01;1.10;;;1.10;;
39362;SDS011;25088;43.238;23.110;2024-01-11T02:48:28;1.10;;;1.10;;
39362;SDS011;25088;43.238;23.110;2024-01-11T02:50:54;1.10;;;1.10;;
39362;SDS011;25088;43.238;23.110;2024-01-11T02:53:20;1.10;;;1.10;;
39362;SDS011;25088;43.238;23.110;2024-01-11T02:55:45;1.10;;;1.10;;
39362;SDS011;25088;43.238;23.110;2024-01-11T02:58:11;1.00;;;1.00;;
39362;SDS011;25088;43.238;23.110;2024-01-11T03:00:36;1.10;;;1.10;;
39362;SDS011;25088;43.238;23.110;2024-01-11T03:03:02;1.20;;;1.20;;
39362;SDS011;25088;43.238;23.110;2024-01-11T03:05:27;1.10;;;1.10;;
39362;SDS011;25088;43.238;23.110;2024-01-11T03:07:53;1.10;;;1.10;;
39362;SDS011;25088;43.238;23.110;2024-01-11T03:10:18;1.27;;;1.27;;
39362;SDS011;25088;43.238;23.110;2024-01-11T03:12:44;1.10;;;1.10;;
39362;SDS011;25088;43.238;23.110;2024-01-11T03:15:09;1.10;;;1.10;;
39362;SDS011;25088;43.238;23.110;2024-01-11T03:17:35;1.13;;;1.13;;
39362;SDS011;25088;43.238;23.110;2024-01-11T03:20:00;1.33;;;1.33;;
39362;SDS011;25088;43.238;23.110;2024-01-11T03:22:26;1.20;;;1.20;;
39362;SDS011;25088;43.238;23.110;2024-01-11T03:24:51;1.10;;;1.10;;
39362;SDS011;25088;43.238;23.110;2024-01-11T03:27:17;1.20;;;1.20;;
39362;SDS011;25088;43.238;23.110;2024-01-11T03:29:43;1.10;;;1.10;;
39362;SDS011;25088;43.238;23.110;2024-01-11T03:32:08;1.20;;;1.20;;
39362;SDS011;25088;43.238;23.110;2024-01-11T03:34:37;1.13;;;1.13;;
39362;SDS011;25088;43.238;23.110;2024-01-11T03:37:03;1.20;;;1.20;;
39362;SDS011;25088;43.238;23.110;2024-01-11T03:39:28;1.30;;;1.30;;
39362;SDS011;25088;43.238;23.110;2024-01-11T03:41:54;1.10;;;1.10;;
39362;SDS011;25088;43.238;23.110;2024-01-11T03:44:19;1.10;;;1.10;;
39362;SDS011;25088;43.238;23.110;2024-01-11T03:46:45;1.15;;;1.15;;
39362;SDS011;25088;43.238;23.110;2024-01-11T03:49:10;1.10;;;1.10;;
39362;SDS011;25088;43.238;23.110;2024-01-11T03:51:36;1.20;;;1.20;;
39362;SDS011;25088;43.238;23.110;2024-01-11T03:54:01;1.10;;;1.10;;
39362;SDS011;25088;43.238;23.110;2024-01-11T03:56:27;1.10;;;1.10;;
39362;SDS011;25088;43.238;23.110;2024-01-11T03:58:52;1.20;;;1.20;;
39362;SDS011;25088;43.238;23.110;2024-01-11T04:01:18;1.20;;;1.20;;
39362;SDS011;25088;43.238;23.110;2024-01-11T04:03:44;1.10;;;1.10;;
39362;SDS011;25088;43.238;23.110;2024-01-11T04:06:18;1.13;;;1.13;;
39362;SDS011;25088;43.238;23.110;2024-01-11T04:08:46;1.10;;;1.10;;
39362;SDS011;25088;43.238;23.110;2024-01-11T04:11:11;1.02;;;1.02;;
39362;SDS011;25088;43.238;23.110;2024-01-11T04:13:37;1.00;;;1.00;;
39362;SDS011;25088;43.238;23.110;2024-01-11T04:16:07;1.10;;;1.10;;
39362;SDS011;25088;43.238;23.110;2024-01-11T04:18:33;1.00;;;1.00;;
39362;SDS011;25088;43.238;23.110;2024-01-11T04:20:58;1.10;;;1.10;;
39362;SDS011;25088;43.238;23.110;2024-01-11T04:23:24;1.10;;;1.10;;
39362;SDS011;25088;43.238;23.110;2024-01-11T04:25:49;1.10;;;1.10;;
39362;SDS011;25088;43.238;23.110;2024-01-11T04:28:16;1.10;;;1.10;;
39362;SDS011;25088;43.238;23.110;2024-01-11T04:30:42;1.15;;;1.15;;
39362;SDS011;25088;43.238;23.110;2024-01-11T04:33:07;1.10;;;1.10;;
39362;SDS011;25088;43.238;23.110;2024-01-11T04:35:33;1.10;;;1.10;;
39362;SDS011;25088;43.238;23.110;2024-01-11T04:37:58;1.00;;;1.00;;
39362;SDS011;25088;43.238;23.110;2024-01-11T04:40:24;1.13;;;1.13;;
39362;SDS011;25088;43.238;23.110;2024-01-11T04:42:49;1.08;;;1.08;;
39362;SDS011;25088;43.238;23.110;2024-01-11T04:45:15;1.20;;;1.20;;
39362;SDS011;25088;43.238;23.110;2024-01-11T04:47:40;1.08;;;1.08;;
39362;SDS011;25088;43.238;23.110;2024-01-11T04:50:06;1.10;;;1.10;;
39362;SDS011;25088;43.238;23.110;2024-01-11T04:52:32;1.20;;;1.20;;
39362;SDS011;25088;43.238;23.110;2024-01-11T04:54:57;1.15;;;1.15;;
39362;SDS011;25088;43.238;23.110;2024-01-11T04:57:23;1.00;;;1.00;;
39362;SDS011;25088;43.238;23.110;2024-01-11T04:59:48;1.10;;;1.10;;
39362;SDS011;25088;43.238;23.110;2024-01-11T05:02:14;1.00;;;1.00;;
39362;SDS011;25088;43.238;23.110;2024-01-11T05:04:40;1.10;;;1.10;;
39362;SDS011;25088;43.238;23.110;2024-01-11T05:07:05;1.13;;;1.13;;
39362;SDS011;25088;43.238;23.110;2024-01-11T05:09:31;1.10;;;1.10;;
39362;SDS011;25088;43.238;23.110;2024-01-11T05:11:56;1.00;;;1.00;;
39362;SDS011;25088;43.238;23.110;2024-01-11T05:14:22;1.00;;;1.00;;
39362;SDS011;25088;43.238;23.110;2024-01-11T05:16:47;1.10;;;1.10;;
39362;SDS011;25088;43.238;23.110;2024-01-11T05:19:13;1.10;;;1.10;;
39362;SDS011;25088;43.238;23.110;2024-01-11T05:21:38;1.00;;;1.00;;
39362;SDS011;25088;43.238;23.110;2024-01-11T05:24:04;1.10;;;1.10;;
39362;SDS011;25088;43.238;23.110;2024-01-11T05:26:31;1.10;;;1.10;;
39362;SDS011;25088;43.238;23.110;2024-01-11T05:28:57;1.00;;;1.00;;
39362;SDS011;25088;43.238;23.110;2024-01-11T05:31:22;1.10;;;1.10;;
39362;SDS011;25088;43.238;23.110;2024-01-11T05:33:48;1.13;;;1.13;;
39362;SDS011;25088;43.238;23.110;2024-01-11T05:36:13;1.00;;;1.00;;
39362;SDS011;25088;43.238;23.110;2024-01-11T05:38:39;1.10;;;1.10;;
39362;SDS011;25088;43.238;23.110;2024-01-11T05:41:05;1.00;;;1.00;;
39362;SDS011;25088;43.238;23.110;2024-01-11T05:43:30;1.00;;;1.00;;
39362;SDS011;25088;43.238;23.110;2024-01-11T05:45:56;1.10;;;1.10;;
39362;SDS011;25088;43.238;23.110;2024-01-11T05:48:21;1.20;;;1.20;;
39362;SDS011;25088;43.238;23.110;2024-01-11T05:50:47;1.00;;;1.00;;
39362;SDS011;25088;43.238;23.110;2024-01-11T05:53:12;1.10;;;1.10;;
39362;SDS011;25088;43.238;23.110;2024-01-11T05:55:38;1.10;;;1.10;;
39362;SDS011;25088;43.238;23.110;2024-01-11T05:58:04;1.10;;;1.10;;
39362;SDS011;25088;43.238;23.110;2024-01-11T06:00:30;1.00;;;1.00;;
39362;SDS011;25088;43.238;23.110;2024-01-11T06:02:56;1.10;;;1.10;;
39362;SDS011;25088;43.238;23.110;2024-01-11T06:05:21;1.05;;;1.05;;
39362;SDS011;25088;43.238;23.110;2024-01-11T06:07:47;1.10;;;1.10;;
39362;SDS011;25088;43.238;23.110;2024-01-11T06:10:12;1.10;;;1.10;;
39362;SDS011;25088;43.238;23.110;2024-01-11T06:12:39;1.10;;;1.10;;
39362;SDS011;25088;43.238;23.110;2024-01-11T06:15:05;1.05;;;1.05;;
39362;SDS011;25088;43.238;23.110;2024-01-11T06:17:30;1.10;;;1.10;;
39362;SDS011;25088;43.238;23.110;2024-01-11T06:19:56;1.00;;;1.00;;
39362;SDS011;25088;43.238;23.110;2024-01-11T06:22:21;1.10;;;1.10;;
39362;SDS011;25088;43.238;23.110;2024-01-11T06:24:47;1.00;;;1.00;;
39362;SDS011;25088;43.238;23.110;2024-01-11T06:27:12;1.10;;;1.10;;
39362;SDS011;25088;43.238;23.110;2024-01-11T06:29:38;1.00;;;1.00;;
39362;SDS011;25088;43.238;23.110;2024-01-11T06:32:04;0.90;;;0.90;;
39362;SDS011;25088;43.238;23.110;2024-01-11T06:34:29;1.00;;;1.00;;
39362;SDS011;25088;43.238;23.110;2024-01-11T06:36:55;1.00;;;1.00;;
39362;SDS011;25088;43.238;23.110;2024-01-11T06:39:21;1.00;;;1.00;;
39362;SDS011;25088;43.238;23.110;2024-01-11T06:41:46;1.00;;;1.00;;
39362;SDS011;25088;43.238;23.110;2024-01-11T06:44:12;1.10;;;1.10;;
39362;SDS011;25088;43.238;23.110;2024-01-11T06:46:38;0.90;;;0.90;;
39362;SDS011;25088;43.238;23.110;2024-01-11T06:49:09;0.90;;;0.90;;
39362;SDS011;25088;43.238;23.110;2024-01-11T06:51:34;0.93;;;0.93;;
39362;SDS011;25088;43.238;23.110;2024-01-11T06:54:00;0.82;;;0.82;;
39362;SDS011;25088;43.238;23.110;2024-01-11T06:56:26;0.80;;;0.80;;
39362;SDS011;25088;43.238;23.110;2024-01-11T06:58:52;0.80;;;0.80;;
39362;SDS011;25088;43.238;23.110;2024-01-11T07:01:17;0.80;;;0.80;;
39362;SDS011;25088;43.238;23.110;2024-01-11T07:03:43;0.80;;;0.80;;
39362;SDS011;25088;43.238;23.110;2024-01-11T07:06:09;0.80;;;0.80;;
39362;SDS011;25088;43.238;23.110;2024-01-11T07:08:35;0.70;;;0.70;;
39362;SDS011;25088;43.238;23.110;2024-01-11T07:11:01;0.70;;;0.70;;
39362;SDS011;25088;43.238;23.110;2024-01-11T07:13:29;0.70;;;0.70;;
39362;SDS011;25088;43.238;23.110;2024-01-11T07:15:56;0.70;;;0.70;;
39362;SDS011;25088;43.238;23.110;2024-01-11T07:18:23;0.70;;;0.70;;
39362;SDS011;25088;43.238;23.110;2024-01-11T07:20:49;0.70;;;0.70;;
39362;SDS011;25088;43.238;23.110;2024-01-11T07:23:15;0.70;;;0.70;;
39362;SDS011;25088;43.238;23.110;2024-01-11T07:25:41;0.60;;;0.60;;
39362;SDS011;25088;43.238;23.110;2024-01-11T07:28:07;0.63;;;0.63;;
39362;SDS011;25088;43.238;23.110;2024-01-11T07:30:32;0.70;;;0.70;;
39362;SDS011;25088;43.238;23.110;2024-01-11T07:32:58;0.60;;;0.60;;
39362;SDS011;25088;43.238;23.110;2024-01-11T07:35:23;0.60;;;0.60;;
39362;SDS011;25088;43.238;23.110;2024-01-11T07:37:49;0.60;;;0.60;;
39362;SDS011;25088;43.238;23.110;2024-01-11T07:40:15;0.60;;;0.60;;
39362;SDS011;25088;43.238;23.110;2024-01-11T07:42:41;0.60;;;0.60;;
39362;SDS011;25088;43.238;23.110;2024-01-11T07:45:07;0.50;;;0.50;;
39362;SDS011;25088;43.238;23.110;2024-01-11T07:47:35;0.60;;;0.60;;
39362;SDS011;25088;43.238;23.110;2024-01-11T07:50:03;0.50;;;0.50;;
39362;SDS011;25088;43.238;23.110;2024-01-11T07:52:31;0.60;;;0.60;;
39362;SDS011;25088;43.238;23.110;2024-01-11T07:54:57;0.60;;;0.60;;
39362;SDS011;25088;43.238;23.110;2024-01-11T07:57:25;0.50;;;0.50;;
39362;SDS011;25088;43.238;23.110;2024-01-11T07:59:50;0.50;;;0.50;;
39362;SDS011;25088;43.238;23.110;2024-01-11T08:02:16;0.55;;;0.55;;
39362;SDS011;25088;43.238;23.110;2024-01-11T08:04:41;0.50;;;0.50;;
39362;SDS011;25088;43.238;23.110;2024-01-11T08:07:07;0.50;;;0.50;;
39362;SDS011;25088;43.238;23.110;2024-01-11T08:09:32;0.50;;;0.50;;
39362;SDS011;25088;43.238;23.110;2024-01-11T08:11:57;0.50;;;0.50;;
39362;SDS011;25088;43.238;23.110;2024-01-11T08:14:23;0.50;;;0.50;;
39362;SDS011;25088;43.238;23.110;2024-01-11T08:16:49;0.40;;;0.40;;
39362;SDS011;25088;43.238;23.110;2024-01-11T08:19:15;0.40;;;0.40;;
39362;SDS011;25088;43.238;23.110;2024-01-11T08:21:40;0.40;;;0.40;;
39362;SDS011;25088;43.238;23.110;2024-01-11T08:24:07;0.40;;;0.40;;
39362;SDS011;25088;43.238;23.110;2024-01-11T08:26:33;0.40;;;0.40;;
39362;SDS011;25088;43.238;23.110;2024-01-11T08:28:59;0.40;;;0.40;;
39362;SDS011;25088;43.238;23.110;2024-01-11T08:31:24;0.30;;;0.30;;
39362;SDS011;25088;43.238;23.110;2024-01-11T08:33:50;0.40;;;0.40;;
39362;SDS011;25088;43.238;23.110;2024-01-11T08:36:15;0.40;;;0.40;;
39362;SDS011;25088;43.238;23.110;2024-01-11T08:38:41;0.40;;;0.40;;
39362;SDS011;25088;43.238;23.110;2024-01-11T08:41:06;0.40;;;0.40;;
39362;SDS011;25088;43.238;23.110;2024-01-11T08:43:32;0.40;;;0.40;;
39362;SDS011;25088;43.238;23.110;2024-01-11T08:45:58;0.40;;;0.40;;
39362;SDS011;25088;43.238;23.110;2024-01-11T08:48:23;0.40;;;0.40;;
39362;SDS011;25088;43.238;23.110;2024-01-11T08:50:49;0.40;;;0.40;;
39362;SDS011;25088;43.238;23.110;2024-01-11T08:53:14;0.30;;;0.30;;
39362;SDS011;25088;43.238;23.110;2024-01-11T08:55:43;0.40;;;0.40;;
39362;SDS011;25088;43.238;23.110;2024-01-11T08:58:09;0.30;;;0.30;;
39362;SDS011;25088;43.238;23.110;2024-01-11T09:00:36;0.30;;;0.30;;
39362;SDS011;25088;43.238;23.110;2024-01-11T09:03:02;0.30;;;0.30;;
39362;SDS011;25088;43.238;23.110;2024-01-11T09:05:28;0.30;;;0.30;;
39362;SDS011;25088;43.238;23.110;2024-01-11T09:07:54;0.30;;;0.30;;
39362;SDS011;25088;43.238;23.110;2024-01-11T09:10:19;0.30;;;0.30;;
39362;SDS011;25088;43.238;23.110;2024-01-11T09:12:45;0.30;;;0.30;;
39362;SDS011;25088;43.238;23.110;2024-01-11T09:15:11;0.30;;;0.30;;
39362;SDS011;25088;43.238;23.110;2024-01-11T09:17:37;0.20;;;0.20;;
39362;SDS011;25088;43.238;23.110;2024-01-11T09:20:03;0.28;;;0.28;;
39362;SDS011;25088;43.238;23.110;2024-01-11T09:22:29;0.30;;;0.30;;
39362;SDS011;25088;43.238;23.110;2024-01-11T09:24:55;0.30;;;0.30;;
39362;SDS011;25088;43.238;23.110;2024-01-11T09:27:20;0.30;;;0.30;;
39362;SDS011;25088;43.238;23.110;2024-01-11T09:29:46;0.20;;;0.20;;
39362;SDS011;25088;43.238;23.110;2024-01-11T09:32:12;0.20;;;0.20;;
39362;SDS011;25088;43.238;23.110;2024-01-11T09:34:37;0.22;;;0.22;;
39362;SDS011;25088;43.238;23.110;2024-01-11T09:37:03;0.30;;;0.30;;
39362;SDS011;25088;43.238;23.110;2024-01-11T09:39:29;0.30;;;0.30;;
39362;SDS011;25088;43.238;23.110;2024-01-11T09:41:58;0.20;;;0.20;;
39362;SDS011;25088;43.238;23.110;2024-01-11T09:44:29;0.25;;;0.25;;
39362;SDS011;25088;43.238;23.110;2024-01-11T09:46:55;0.20;;;0.20;;
39362;SDS011;25088;43.238;23.110;2024-01-11T09:49:23;0.20;;;0.20;;
39362;SDS011;25088;43.238;23.110;2024-01-11T09:51:49;0.20;;;0.20;;
39362;SDS011;25088;43.238;23.110;2024-01-11T09:54:16;0.20;;;0.20;;
39362;SDS011;25088;43.238;23.110;2024-01-11T09:56:46;0.20;;;0.20;;
39362;SDS011;25088;43.238;23.110;2024-01-11T09:59:14;0.20;;;0.20;;
39362;SDS011;25088;43.238;23.110;2024-01-11T10:01:43;0.20;;;0.20;;
39362;SDS011;25088;43.238;23.110;2024-01-11T10:04:09;0.20;;;0.20;;
39362;SDS011;25088;43.238;23.110;2024-01-11T10:06:37;0.20;;;0.20;;
39362;SDS011;25088;43.238;23.110;2024-01-11T10:09:03;0.10;;;0.10;;
39362;SDS011;25088;43.238;23.110;2024-01-11T10:11:29;0.20;;;0.20;;
39362;SDS011;25088;43.238;23.110;2024-01-11T10:13:57;0.20;;;0.20;;
39362;SDS011;25088;43.238;23.110;2024-01-11T10:16:24;0.20;;;0.20;;
39362;SDS011;25088;43.238;23.110;2024-01-11T10:18:49;0.20;;;0.20;;
39362;SDS011;25088;43.238;23.110;2024-01-11T10:21:18;0.20;;;0.20;;
39362;SDS011;25088;43.238;23.110;2024-01-11T10:23:44;0.20;;;0.20;;
39362;SDS011;25088;43.238;23.110;2024-01-11T10:26:09;0.20;;;0.20;;
39362;SDS011;25088;43.238;23.110;2024-01-11T10:28:35;0.30;;;0.30;;
39362;SDS011;25088;43.238;23.110;2024-01-11T10:31:04;0.20;;;0.20;;
39362;SDS011;25088;43.238;23.110;2024-01-11T10:33:33;0.20;;;0.20;;
39362;SDS011;25088;43.238;23.110;2024-01-11T10:35:59;0.20;;;0.20;;
39362;SDS011;25088;43.238;23.110;2024-01-11T10:38:25;0.20;;;0.20;;
39362;SDS011;25088;43.238;23.110;2024-01-11T10:40:51;0.20;;;0.20;;
39362;SDS011;25088;43.238;23.110;2024-01-11T10:43:21;0.20;;;0.20;;
39362;SDS011;25088;43.238;23.110;2024-01-11T10:45:48;0.20;;;0.20;;
39362;SDS011;25088;43.238;23.110;2024-01-11T10:48:15;0.20;;;0.20;;
39362;SDS011;25088;43.238;23.110;2024-01-11T10:50:44;0.30;;;0.30;;
39362;SDS011;25088;43.238;23.110;2024-01-11T10:55:42;0.20;;;0.20;;
39362;SDS011;25088;43.238;23.110;2024-01-11T10:58:10;0.20;;;0.20;;
39362;SDS011;25088;43.238;23.110;2024-01-11T11:00:36;0.20;;;0.20;;
39362;SDS011;25088;43.238;23.110;2024-01-11T11:03:03;0.22;;;0.22;;
39362;SDS011;25088;43.238;23.110;2024-01-11T11:05:31;0.20;;;0.20;;
39362;SDS011;25088;43.238;23.110;2024-01-11T11:08:00;0.30;;;0.30;;
39362;SDS011;25088;43.238;23.110;2024-01-11T11:10:30;0.20;;;0.20;;
39362;SDS011;25088;43.238;23.110;2024-01-11T11:12:57;0.20;;;0.20;;
39362;SDS011;25088;43.238;23.110;2024-01-11T11:15:24;0.20;;;0.20;;
39362;SDS011;25088;43.238;23.110;2024-01-11T11:17:52;0.20;;;0.20;;
39362;SDS011;25088;43.238;23.110;2024-01-11T11:20:18;0.20;;;0.20;;
39362;SDS011;25088;43.238;23.110;2024-01-11T11:22:48;0.20;;;0.20;;
39362;SDS011;25088;43.238;23.110;2024-01-11T11:25:35;0.28;;;0.28;;
39362;SDS011;25088;43.238;23.110;2024-01-11T11:28:01;0.20;;;0.20;;
39362;SDS011;25088;43.238;23.110;2024-01-11T11:30:29;0.30;;;0.30;;
39362;SDS011;25088;43.238;23.110;2024-01-11T11:33:07;0.20;;;0.20;;
39362;SDS011;25088;43.238;23.110;2024-01-11T11:35:36;0.20;;;0.20;;
39362;SDS011;25088;43.238;23.110;2024-01-11T11:38:02;0.20;;;0.20;;
39362;SDS011;25088;43.238;23.110;2024-01-11T11:40:47;0.20;;;0.20;;
39362;SDS011;25088;43.238;23.110;2024-01-11T11:43:15;0.20;;;0.20;;
39362;SDS011;25088;43.238;23.110;2024-01-11T11:45:42;0.20;;;0.20;;
39362;SDS011;25088;43.238;23.110;2024-01-11T11:48:50;0.20;;;0.20;;
39362;SDS011;25088;43.238;23.110;2024-01-11T11:51:06;0.20;;;0.20;;
39362;SDS011;25088;43.238;23.110;2024-01-11T11:53:35;0.20;;;0.20;;
39362;SDS011;25088;43.238;23.110;2024-01-11T11:56:01;0.20;;;0.20;;
39362;SDS011;25088;43.238;23.110;2024-01-11T11:58:28;0.20;;;0.20;;
39362;SDS011;25088;43.238;23.110;2024-01-11T12:00:57;0.20;;;0.20;;
39362;SDS011;25088;43.238;23.110;2024-01-11T12:03:30;0.20;;;0.20;;
39362;SDS011;25088;43.238;23.110;2024-01-11T12:05:56;0.20;;;0.20;;
39362;SDS011;25088;43.238;23.110;2024-01-11T12:08:22;0.20;;;0.20;;
39362;SDS011;25088;43.238;23.110;2024-01-11T12:10:48;0.20;;;0.20;;
39362;SDS011;25088;43.238;23.110;2024-01-11T12:13:14;0.20;;;0.20;;
39362;SDS011;25088;43.238;23.110;2024-01-11T12:15:40;0.20;;;0.20;;
39362;SDS011;25088;43.238;23.110;2024-01-11T12:18:05;0.20;;;0.20;;
39362;SDS011;25088;43.238;23.110;2024-01-11T12:20:32;0.20;;;0.20;;
39362;SDS011;25088;43.238;23.110;2024-01-11T12:22:58;0.20;;;0.20;;
39362;SDS011;25088;43.238;23.110;2024-01-11T12:25:24;0.20;;;0.20;;
39362;SDS011;25088;43.238;23.110;2024-01-11T12:27:50;0.20;;;0.20;;
39362;SDS011;25088;43.238;23.110;2024-01-11T12:30:18;0.20;;;0.20;;
39362;SDS011;25088;43.238;23.110;2024-01-11T12:32:46;0.20;;;0.20;;
39362;SDS011;25088;43.238;23.110;2024-01-11T12:35:12;0.20;;;0.20;;
39362;SDS011;25088;43.238;23.110;2024-01-11T12:37:38;0.20;;;0.20;;
39362;SDS011;25088;43.238;23.110;2024-01-11T12:40:03;0.20;;;0.20;;
39362;SDS011;25088;43.238;23.110;2024-01-11T12:42:33;0.20;;;0.20;;
39362;SDS011;25088;43.238;23.110;2024-01-11T12:45:00;0.10;;;0.10;;
39362;SDS011;25088;43.238;23.110;2024-01-11T12:47:25;0.20;;;0.20;;
39362;SDS011;25088;43.238;23.110;2024-01-11T12:49:51;0.20;;;0.20;;
39362;SDS011;25088;43.238;23.110;2024-01-11T12:52:20;0.20;;;0.20;;
39362;SDS011;25088;43.238;23.110;2024-01-11T12:54:45;0.20;;;0.20;;
39362;SDS011;25088;43.238;23.110;2024-01-11T12:57:18;0.10;;;0.10;;
39362;SDS011;25088;43.238;23.110;2024-01-11T12:59:47;0.20;;;0.20;;
39362;SDS011;25088;43.238;23.110;2024-01-11T13:02:13;0.20;;;0.20;;
39362;SDS011;25088;43.238;23.110;2024-01-11T13:04:39;0.20;;;0.20;;
39362;SDS011;25088;43.238;23.110;2024-01-11T13:07:05;0.20;;;0.20;;
39362;SDS011;25088;43.238;23.110;2024-01-11T13:09:32;0.20;;;0.20;;
39362;SDS011;25088;43.238;23.110;2024-01-11T13:11:58;0.10;;;0.10;;
39362;SDS011;25088;43.238;23.110;2024-01-11T13:14:25;0.20;;;0.20;;
39362;SDS011;25088;43.238;23.110;2024-01-11T13:16:50;0.10;;;0.10;;
39362;SDS011;25088;43.238;23.110;2024-01-11T13:19:16;0.20;;;0.20;;
39362;SDS011;25088;43.238;23.110;2024-01-11T13:21:41;0.20;;;0.20;;
39362;SDS011;25088;43.238;23.110;2024-01-11T13:24:07;0.20;;;0.20;;
39362;SDS011;25088;43.238;23.110;2024-01-11T13:26:38;0.30;;;0.30;;
39362;SDS011;25088;43.238;23.110;2024-01-11T13:29:04;0.20;;;0.20;;
39362;SDS011;25088;43.238;23.110;2024-01-11T13:31:30;0.20;;;0.20;;
39362;SDS011;25088;43.238;23.110;2024-01-11T13:33:56;0.20;;;0.20;;
39362;SDS011;25088;43.238;23.110;2024-01-11T13:36:22;0.20;;;0.20;;
39362;SDS011;25088;43.238;23.110;2024-01-11T13:38:48;0.20;;;0.20;;
39362;SDS011;25088;43.238;23.110;2024-01-11T13:41:15;0.20;;;0.20;;
39362;SDS011;25088;43.238;23.110;2024-01-11T13:43:42;0.20;;;0.20;;
39362;SDS011;25088;43.238;23.110;2024-01-11T13:46:08;0.20;;;0.20;;
39362;SDS011;25088;43.238;23.110;2024-01-11T13:48:34;0.30;;;0.30;;
39362;SDS011;25088;43.238;23.110;2024-01-11T13:50:59;0.30;;;0.30;;
39362;SDS011;25088;43.238;23.110;2024-01-11T13:53:25;0.30;;;0.30;;
39362;SDS011;25088;43.238;23.110;2024-01-11T13:55:51;0.30;;;0.30;;
39362;SDS011;25088;43.238;23.110;2024-01-11T13:58:17;0.40;;;0.40;;
39362;SDS011;25088;43.238;23.110;2024-01-11T14:00:43;0.30;;;0.30;;
39362;SDS011;25088;43.238;23.110;2024-01-11T14:03:09;0.30;;;0.30;;
39362;SDS011;25088;43.238;23.110;2024-01-11T14:05:36;0.30;;;0.30;;
39362;SDS011;25088;43.238;23.110;2024-01-11T14:08:02;0.30;;;0.30;;
39362;SDS011;25088;43.238;23.110;2024-01-11T14:10:30;0.30;;;0.30;;
39362;SDS011;25088;43.238;23.110;2024-01-11T14:12:57;0.40;;;0.40;;
39362;SDS011;25088;43.238;23.110;2024-01-11T14:15:23;0.40;;;0.40;;
39362;SDS011;25088;43.238;23.110;2024-01-11T14:17:50;0.40;;;0.40;;
39362;SDS011;25088;43.238;23.110;2024-01-11T14:20:15;0.50;;;0.50;;
39362;SDS011;25088;43.238;23.110;2024-01-11T14:22:41;0.50;;;0.50;;
39362;SDS011;25088;43.238;23.110;2024-01-11T14:25:07;0.50;;;0.50;;
39362;SDS011;25088;43.238;23.110;2024-01-11T14:27:36;0.50;;;0.50;;
39362;SDS011;25088;43.238;23.110;2024-01-11T14:30:01;0.50;;;0.50;;